Time;durP1;ratioP1;P1;durP2;ratioP2;P2;SDS_P1;SDS_P2;PMS_P1;PMS_P2;Temp;Humidity;BMP_temperature;BMP_pressure;BME280_temperature;BME280_humidity;BME280_pressure;Samples;Min_cycle;Max_cycle;Signal;HPM_P1;HPM_P2
2022/04/29 00:01:03;;;;;;;3.45;2.92;;;20.90;99.90;;;;;;5009215;28;20030;-69
2022/04/29 00:03:30;;;;;;;4.07;3.00;;;20.90;99.90;;;;;;5006476;28;20453;-69
2022/04/29 00:05:57;;;;;;;2.97;2.65;;;21.20;99.90;;;;;;5002337;28;20026;-69
2022/04/29 00:08:24;;;;;;;3.38;2.67;;;21.00;99.90;;;;;;5005281;28;20025;-69
2022/04/29 00:10:52;;;;;;;3.83;2.60;;;21.00;99.90;;;;;;5006014;28;20479;-70
2022/04/29 00:13:19;;;;;;;3.72;2.80;;;21.10;99.90;;;;;;5007407;28;20112;-70
2022/04/29 00:15:46;;;;;;;4.20;2.30;;;21.30;99.90;;;;;;4986251;28;20030;-69
2022/04/29 00:18:14;;;;;;;3.20;1.67;;;21.20;99.90;;;;;;5011320;28;20497;-70
2022/04/29 00:20:41;;;;;;;3.67;2.10;;;21.10;99.90;;;;;;5012993;28;20495;-69
2022/04/29 00:23:09;;;;;;;3.33;1.85;;;21.30;99.90;;;;;;5014914;28;20371;-69
2022/04/29 00:25:37;;;;;;;5.00;2.15;;;21.30;99.90;;;;;;5009930;28;20037;-70
2022/04/29 00:28:05;;;;;;;4.03;1.92;;;21.40;99.90;;;;;;5009561;28;20061;-70
2022/04/29 00:30:32;;;;;;;3.25;1.63;;;21.50;99.90;;;;;;5005244;28;20041;-70
2022/04/29 00:33:00;;;;;;;2.42;1.45;;;21.60;99.90;;;;;;5010277;28;20038;-69
2022/04/29 00:35:27;;;;;;;2.95;1.40;;;21.40;99.90;;;;;;5015127;28;20168;-70
2022/04/29 00:37:56;;;;;;;1.52;1.27;;;21.40;99.90;;;;;;5007056;28;20029;-70
2022/04/29 00:40:26;;;;;;;6.47;1.92;;;21.50;99.90;;;;;;4999208;28;20030;-70
2022/04/29 00:42:54;;;;;;;1.75;1.20;;;21.60;99.90;;;;;;5012471;28;20056;-69
2022/04/29 00:45:22;;;;;;;2.75;1.52;;;21.50;99.90;;;;;;5011131;28;20044;-70
2022/04/29 00:47:51;;;;;;;2.00;1.05;;;21.50;99.90;;;;;;5008013;28;20026;-70
2022/04/29 00:50:22;;;;;;;2.80;1.20;;;21.70;99.90;;;;;;5011433;28;20079;-70
2022/04/29 00:52:52;;;;;;;1.63;1.13;;;21.90;99.90;;;;;;5003209;28;20038;-70
2022/04/29 00:55:21;;;;;;;4.05;1.38;;;22.20;99.90;;;;;;4984688;28;20033;-69
2022/04/29 00:58:11;;;;;;;2.13;1.00;;;22.40;99.90;;;;;;5010707;28;20462;-70
2022/04/29 01:00:38;;;;;;;173.38;11.93;;;22.60;99.90;;;;;;5005189;28;20042;-70
2022/04/29 01:03:06;;;;;;;4.32;1.20;;;22.70;99.90;;;;;;5014077;28;20049;-70
2022/04/29 01:05:34;;;;;;;2.53;1.00;;;23.10;99.90;;;;;;4994976;28;20034;-70
2022/04/29 01:08:01;;;;;;;2.70;0.88;;;23.20;99.90;;;;;;5001060;28;20106;-70
2022/04/29 01:10:28;;;;;;;2.78;1.23;;;23.40;99.90;;;;;;4997055;28;20030;-70
2022/04/29 01:13:04;;;;;;;1.98;1.05;;;23.20;99.90;;;;;;5007968;28;20038;-70
2022/04/29 01:15:32;;;;;;;4.22;1.75;;;23.10;99.90;;;;;;5016067;28;20029;-70
2022/04/29 01:18:08;;;;;;;2.72;1.30;;;22.90;99.90;;;;;;5015925;28;20132;-71
2022/04/29 01:20:37;;;;;;;6.28;1.27;;;22.90;99.90;;;;;;5017930;28;20045;-71
2022/04/29 01:23:09;;;;;;;4.38;1.08;;;22.70;99.90;;;;;;5012581;28;20387;-70
2022/04/29 01:25:36;;;;;;;11.13;0.82;;;22.70;99.90;;;;;;5011624;28;20018;-71
2022/04/29 01:28:04;;;;;;;1.02;0.90;;;22.60;99.90;;;;;;5013557;28;20022;-70
2022/04/29 01:30:32;;;;;;;1.80;1.10;;;22.70;99.90;;;;;;5011576;28;20034;-71
2022/04/29 01:33:01;;;;;;;3.25;1.20;;;22.80;99.90;;;;;;5018569;28;20084;-71
2022/04/29 01:35:29;;;;;;;3.17;1.13;;;22.60;99.90;;;;;;5008715;28;20040;-71
2022/04/29 01:37:57;;;;;;;10.75;2.00;;;22.60;99.90;;;;;;5007938;28;20029;-71
2022/04/29 01:40:24;;;;;;;3.53;1.30;;;22.60;99.90;;;;;;4993399;28;20486;-70
2022/04/29 01:42:52;;;;;;;4.15;1.42;;;22.70;99.90;;;;;;5009864;28;20022;-70
2022/04/29 01:45:20;;;;;;;4.13;1.20;;;22.70;99.90;;;;;;5005922;28;20025;-71
2022/04/29 01:47:48;;;;;;;1.75;1.15;;;22.80;99.90;;;;;;5012403;28;20061;-70
2022/04/29 01:50:15;;;;;;;3.08;1.30;;;22.90;99.90;;;;;;5004145;28;20505;-70
2022/04/29 01:52:42;;;;;;;3.33;0.98;;;23.10;99.90;;;;;;5009867;28;20026;-70
2022/04/29 01:55:10;;;;;;;4.20;1.27;;;23.20;99.90;;;;;;5011648;28;20067;-70
2022/04/29 01:57:37;;;;;;;3.75;1.23;;;23.20;99.90;;;;;;5013015;28;20058;-70
2022/04/29 02:00:05;;;;;;;4.18;1.50;;;23.20;99.90;;;;;;5012816;28;20084;-68
2022/04/29 02:02:33;;;;;;;4.13;1.92;;;23.30;99.90;;;;;;5012074;28;20046;-68
2022/04/29 02:05:00;;;;;;;6.18;1.83;;;23.30;99.90;;;;;;5008797;28;20029;-68
2022/04/29 02:07:27;;;;;;;3.67;1.83;;;23.30;99.90;;;;;;5008973;28;20152;-68
2022/04/29 02:09:56;;;;;;;2.97;1.20;;;23.20;99.90;;;;;;5011233;28;20453;-68
2022/04/29 02:12:23;;;;;;;2.92;1.15;;;23.30;99.90;;;;;;5010059;28;20041;-68
2022/04/29 02:14:51;;;;;;;3.88;1.80;;;23.30;99.90;;;;;;5008114;28;20030;-68
2022/04/29 02:17:22;;;;;;;4.18;1.40;;;23.40;99.90;;;;;;5008413;28;20037;-68
2022/04/29 02:19:49;;;;;;;4.43;1.27;;;23.40;99.90;;;;;;5003029;28;20039;-68
2022/04/29 02:22:17;;;;;;;3.95;1.55;;;23.30;99.90;;;;;;5010626;28;20018;-70
2022/04/29 02:24:44;;;;;;;5.97;1.75;;;23.30;99.90;;;;;;4997327;28;20065;-69
2022/04/29 02:27:11;;;;;;;2.65;1.10;;;23.40;99.90;;;;;;5011912;28;20034;-68
2022/04/29 02:29:39;;;;;;;5.20;1.45;;;23.70;99.90;;;;;;5010717;28;20026;-68
2022/04/29 02:32:06;;;;;;;2.50;1.00;;;23.80;99.90;;;;;;5012529;28;20057;-69
2022/04/29 02:34:36;;;;;;;4.28;1.30;;;24.10;99.90;;;;;;5016919;28;20030;-69
2022/04/29 02:37:04;;;;;;;5.10;1.17;;;24.20;99.90;;;;;;5010237;28;20041;-69
2022/04/29 02:39:31;;;;;;;4.45;1.40;;;24.40;99.90;;;;;;5006931;28;20249;-69
2022/04/29 02:41:59;;;;;;;6.32;2.13;;;24.50;99.90;;;;;;5012130;28;20390;-69
2022/04/29 02:44:26;;;;;;;5.40;1.23;;;25.00;99.90;;;;;;5001355;28;20030;-69
2022/04/29 02:47:09;;;;;;;3.45;1.50;;;25.00;99.90;;;;;;5010227;28;20065;-69
2022/04/29 02:49:41;;;;;;;2.05;1.30;;;25.00;99.90;;;;;;4993874;28;20026;-69
2022/04/29 02:52:10;;;;;;;5.15;1.30;;;25.70;99.90;;;;;;5019558;28;20486;-69
2022/04/29 02:54:38;;;;;;;4.65;1.15;;;25.40;99.90;;;;;;5010088;28;20026;-69
2022/04/29 02:57:06;;;;;;;1.92;0.85;;;25.40;99.90;;;;;;5006808;28;20034;-69
2022/04/29 02:59:34;;;;;;;2.97;1.27;;;25.10;99.90;;;;;;5008346;28;20123;-70
2022/04/29 03:02:01;;;;;;;3.55;0.90;;;25.60;99.90;;;;;;4992711;28;20048;-69
2022/04/29 03:04:28;;;;;;;4.05;1.10;;;26.00;99.90;;;;;;5030908;28;20025;-69
2022/04/29 03:06:56;;;;;;;2.95;1.10;;;26.40;99.90;;;;;;5013616;28;20033;-69
2022/04/29 03:09:24;;;;;;;3.22;0.95;;;25.90;99.90;;;;;;5046553;28;20032;-70
2022/04/29 03:11:51;;;;;;;4.28;0.88;;;25.70;99.90;;;;;;5031371;28;20025;-70
2022/04/29 03:14:18;;;;;;;4.07;1.00;;;25.60;99.90;;;;;;5032170;28;20029;-70
2022/04/29 03:16:46;;;;;;;3.22;1.00;;;25.90;99.90;;;;;;5031469;28;20115;-69
2022/04/29 03:19:13;;;;;;;1.38;0.82;;;25.80;99.90;;;;;;5036117;28;20385;-70
2022/04/29 03:21:40;;;;;;;2.30;1.40;;;25.60;99.90;;;;;;5033395;28;20028;-70
2022/04/29 03:24:08;;;;;;;4.28;1.00;;;26.00;99.90;;;;;;5018693;28;20036;-70
2022/04/29 03:26:38;;;;;;;2.05;0.80;;;26.30;99.90;;;;;;5031554;28;20033;-70
2022/04/29 03:29:05;;;;;;;4.40;1.30;;;26.50;99.90;;;;;;5030479;28;20030;-70
2022/04/29 03:31:33;;;;;;;1.85;1.10;;;26.50;99.90;;;;;;5033189;28;20104;-70
2022/04/29 03:34:00;;;;;;;4.60;1.25;;;26.60;99.90;;;;;;5028730;28;20431;-70
2022/04/29 03:36:27;;;;;;;4.30;1.30;;;26.60;99.90;;;;;;5033348;28;20018;-70
2022/04/29 03:38:55;;;;;;;5.18;1.45;;;27.00;99.90;;;;;;5034618;28;20025;-70
2022/04/29 03:41:22;;;;;;;3.85;1.30;;;26.90;99.90;;;;;;5034845;28;20032;-70
2022/04/29 03:43:49;;;;;;;4.13;1.30;;;27.00;99.90;;;;;;5034217;28;20038;-70
2022/04/29 03:46:17;;;;;;;6.07;1.70;;;26.10;99.90;;;;;;5033211;28;20097;-69
2022/04/29 03:51:30;;;;;;;32.67;10.13;;;25.90;99.90;;;;;;5031708;28;20028;-69
2022/04/29 03:53:57;;;;;;;17.23;7.18;;;25.60;99.90;;;;;;5032802;28;20505;-69
2022/04/29 03:56:25;;;;;;;47.60;18.63;;;25.50;99.90;;;;;;5034469;28;20113;-70
2022/04/29 03:58:52;;;;;;;15.15;5.70;;;25.30;99.90;;;;;;5029113;28;20117;-69
2022/04/29 04:01:20;;;;;;;29.20;12.18;;;25.50;99.90;;;;;;5032658;28;20029;-69
2022/04/29 04:03:47;;;;;;;5.03;1.83;;;25.50;99.90;;;;;;5031131;28;20053;-69
2022/04/29 04:08:59;;;;;;;9.23;2.88;;;25.80;99.90;;;;;;5032671;28;20143;-69
2022/04/29 04:11:27;;;;;;;9.82;2.50;;;25.70;99.90;;;;;;5033043;28;20029;-70
2022/04/29 04:13:54;;;;;;;7.18;1.52;;;25.40;99.90;;;;;;5034109;28;20520;-70
2022/04/29 04:16:23;;;;;;;5.20;1.77;;;25.30;99.90;;;;;;5032888;28;20821;-69
2022/04/29 04:18:51;;;;;;;11.73;2.00;;;25.30;99.90;;;;;;5026562;28;20036;-70
2022/04/29 04:21:19;;;;;;;9.93;1.98;;;25.10;99.90;;;;;;5040598;28;20029;-69
2022/04/29 04:23:46;;;;;;;4.57;1.88;;;25.20;99.90;;;;;;5034035;28;20029;-69
2022/04/29 04:26:13;;;;;;;5.43;1.30;;;25.00;99.90;;;;;;5030167;28;20151;-69
2022/04/29 04:28:41;;;;;;;7.32;2.00;;;25.00;99.90;;;;;;5033379;28;20040;-69
2022/04/29 04:31:08;;;;;;;7.45;1.90;;;25.10;99.90;;;;;;5030015;28;20020;-70
2022/04/29 04:33:35;;;;;;;4.85;1.35;;;25.10;99.90;;;;;;5031919;28;20125;-69
2022/04/29 04:36:04;;;;;;;3.88;1.48;;;24.90;99.90;;;;;;5023968;28;20029;-69
2022/04/29 04:38:32;;;;;;;3.25;1.30;;;24.80;99.90;;;;;;5013496;28;20026;-69
2022/04/29 04:40:59;;;;;;;4.20;1.58;;;24.80;99.90;;;;;;5025260;28;20449;-70
2022/04/29 04:43:27;;;;;;;5.75;1.70;;;24.70;99.90;;;;;;5032868;28;20079;-69
2022/04/29 04:45:56;;;;;;;4.80;2.22;;;24.80;99.90;;;;;;5032812;28;20022;-69
2022/04/29 04:48:23;;;;;;;4.80;2.20;;;24.70;99.90;;;;;;5029659;28;20033;-69
2022/04/29 04:50:50;;;;;;;15.35;2.70;;;24.80;99.90;;;;;;5026223;28;20030;-69
2022/04/29 04:53:18;;;;;;;11.40;3.00;;;24.70;99.90;;;;;;4996969;28;20034;-69
2022/04/29 04:55:45;;;;;;;7.72;2.65;;;24.60;99.90;;;;;;5029551;28;20053;-69
2022/04/29 04:58:13;;;;;;;10.38;2.55;;;24.60;99.90;;;;;;5032416;28;20144;-69
2022/04/29 05:00:40;;;;;;;7.50;2.38;;;24.50;99.90;;;;;;5024273;28;20029;-69
2022/04/29 05:03:08;;;;;;;6.50;2.38;;;24.40;99.90;;;;;;5033041;28;20053;-69
2022/04/29 05:05:35;;;;;;;10.80;2.70;;;24.30;99.90;;;;;;5026942;28;20033;-69
2022/04/29 05:08:03;;;;;;;7.88;2.58;;;24.30;99.90;;;;;;5027694;28;20382;-70
2022/04/29 05:10:30;;;;;;;7.13;2.25;;;24.30;99.90;;;;;;5027613;28;20469;-69
2022/04/29 05:12:57;;;;;;;5.45;2.17;;;24.30;99.90;;;;;;5024490;28;20171;-70
2022/04/29 05:15:24;;;;;;;8.32;2.55;;;24.30;99.90;;;;;;5032668;28;20485;-69
2022/04/29 05:17:52;;;;;;;6.40;2.35;;;24.20;99.90;;;;;;5028252;28;20101;-69
2022/04/29 05:20:19;;;;;;;5.85;2.28;;;24.10;99.90;;;;;;5030277;28;20109;-69
2022/04/29 05:22:47;;;;;;;10.32;2.65;;;24.10;99.90;;;;;;5028981;28;20018;-69
2022/04/29 05:25:15;;;;;;;4.60;2.42;;;24.10;99.90;;;;;;5030481;28;20065;-70
2022/04/29 05:27:42;;;;;;;5.50;2.58;;;24.10;99.90;;;;;;5029766;28;20041;-69
2022/04/29 05:30:09;;;;;;;9.75;2.63;;;24.20;99.90;;;;;;5023637;28;20021;-69
2022/04/29 05:32:38;;;;;;;4.72;2.20;;;24.20;99.90;;;;;;5029209;28;20041;-70
2022/04/29 05:35:08;;;;;;;7.25;2.22;;;24.10;99.90;;;;;;5032408;28;20031;-70
2022/04/29 05:37:37;;;;;;;5.70;2.60;;;24.00;99.90;;;;;;5031308;28;20116;-69
2022/04/29 05:42:50;;;;;;;6.07;2.30;;;24.00;99.90;;;;;;5001657;28;20098;-69
2022/04/29 05:45:17;;;;;;;7.07;2.92;;;23.90;99.90;;;;;;5038143;28;20391;-69
2022/04/29 05:47:45;;;;;;;6.88;2.65;;;23.90;99.90;;;;;;5011591;28;20087;-69
2022/04/29 05:50:12;;;;;;;6.82;2.60;;;23.90;99.90;;;;;;5033789;28;20040;-69
2022/04/29 05:52:39;;;;;;;4.90;3.08;;;23.90;99.90;;;;;;5035076;28;20034;-69
2022/04/29 05:55:07;;;;;;;5.03;2.63;;;23.80;99.90;;;;;;5026628;28;20370;-69
2022/04/29 05:57:34;;;;;;;4.18;2.22;;;23.80;99.90;;;;;;5037514;28;20063;-69
2022/04/29 06:00:02;;;;;;;6.25;2.47;;;23.90;99.90;;;;;;5030905;28;20029;-69
2022/04/29 06:02:30;;;;;;;7.00;2.90;;;23.90;99.90;;;;;;5028208;28;20046;-69
2022/04/29 06:04:58;;;;;;;5.78;2.40;;;23.90;99.90;;;;;;5031988;28;20385;-69
2022/04/29 06:07:25;;;;;;;5.57;2.60;;;23.80;99.90;;;;;;5030158;28;20056;-69
2022/04/29 06:09:52;;;;;;;8.48;2.92;;;23.80;99.90;;;;;;5030029;28;20018;-69
2022/04/29 06:12:19;;;;;;;7.70;3.30;;;23.70;99.90;;;;;;5033115;28;20029;-68
2022/04/29 06:14:47;;;;;;;4.95;2.60;;;23.60;99.90;;;;;;5030034;28;20088;-69
2022/04/29 06:17:15;;;;;;;4.18;2.97;;;23.60;99.90;;;;;;5029117;28;20037;-69
2022/04/29 06:19:42;;;;;;;3.92;2.63;;;23.60;99.90;;;;;;5026271;28;20383;-69
2022/04/29 06:22:09;;;;;;;5.50;2.92;;;23.60;99.90;;;;;;5022725;28;20045;-69
2022/04/29 06:24:39;;;;;;;6.70;3.00;;;23.60;99.90;;;;;;5031553;28;20078;-69
2022/04/29 06:27:06;;;;;;;10.90;2.83;;;23.60;99.90;;;;;;5029012;28;20022;-69
2022/04/29 06:29:34;;;;;;;10.52;3.30;;;23.60;99.90;;;;;;5025368;28;20033;-69
2022/04/29 06:32:01;;;;;;;10.57;3.45;;;23.60;99.90;;;;;;5029174;28;20036;-69
2022/04/29 06:34:31;;;;;;;6.63;3.15;;;23.60;99.90;;;;;;5023909;28;20036;-69
2022/04/29 06:36:59;;;;;;;8.23;3.25;;;23.50;99.90;;;;;;5033741;28;20129;-69
2022/04/29 06:39:26;;;;;;;7.13;3.38;;;23.50;99.90;;;;;;5029773;28;20066;-69
2022/04/29 06:41:53;;;;;;;8.48;3.75;;;23.40;99.90;;;;;;5029643;28;20030;-69
2022/04/29 06:44:20;;;;;;;7.72;4.22;;;23.40;99.90;;;;;;5025881;28;20018;-69
2022/04/29 06:46:50;;;;;;;10.75;3.83;;;23.40;99.90;;;;;;5034863;28;20021;-69
2022/04/29 06:49:18;;;;;;;9.52;4.10;;;23.30;99.90;;;;;;5029478;28;20106;-69
2022/04/29 06:51:45;;;;;;;10.50;4.72;;;23.30;99.90;;;;;;5023812;28;20037;-69
2022/04/29 06:54:12;;;;;;;10.90;4.47;;;23.20;99.90;;;;;;5024706;28;20048;-69
2022/04/29 06:56:39;;;;;;;11.40;5.40;;;23.20;99.90;;;;;;5027891;28;20022;-69
2022/04/29 06:59:07;;;;;;;10.15;4.85;;;23.20;99.90;;;;;;5035773;28;20095;-69
2022/04/29 07:01:34;;;;;;;9.77;5.53;;;23.20;99.90;;;;;;5027559;28;20410;-69
2022/04/29 07:04:02;;;;;;;10.75;5.93;;;23.10;99.90;;;;;;5035016;28;20461;-69
2022/04/29 07:06:29;;;;;;;11.68;6.75;;;23.00;99.90;;;;;;5028764;28;20030;-69
2022/04/29 07:08:56;;;;;;;10.18;6.60;;;23.00;99.90;;;;;;5031659;28;20363;-70
2022/04/29 07:11:25;;;;;;;9.63;6.70;;;22.90;99.90;;;;;;5031717;28;20026;-69
2022/04/29 07:13:52;;;;;;;14.98;6.72;;;22.90;99.90;;;;;;5027072;28;20029;-70
2022/04/29 07:16:20;;;;;;;13.05;6.53;;;22.80;99.90;;;;;;5034454;28;20108;-69
2022/04/29 07:18:47;;;;;;;13.15;5.78;;;22.80;99.90;;;;;;5035371;28;20486;-69
2022/04/29 07:21:15;;;;;;;15.18;7.60;;;22.80;99.90;;;;;;5038545;28;20367;-69
2022/04/29 07:23:42;;;;;;;13.25;7.28;;;22.70;99.90;;;;;;5035183;28;20037;-69
2022/04/29 07:26:09;;;;;;;14.90;6.38;;;22.70;99.90;;;;;;5030427;28;20482;-69
2022/04/29 07:28:37;;;;;;;15.18;7.43;;;22.70;99.90;;;;;;5033875;28;20028;-70
2022/04/29 07:31:04;;;;;;;11.70;7.22;;;22.70;99.90;;;;;;5028449;28;20037;-69
2022/04/29 07:33:31;;;;;;;14.98;8.15;;;22.60;99.90;;;;;;5029174;28;20072;-69
2022/04/29 07:41:47;;;;;;;13.55;7.10;;;22.50;99.90;;;;;;5022603;28;20068;-69
2022/04/29 07:44:16;;;;;;;19.33;7.35;;;22.50;99.90;;;;;;5033736;28;20131;-69
2022/04/29 07:46:45;;;;;;;13.70;6.82;;;22.50;99.90;;;;;;5033889;28;20037;-70
2022/04/29 07:49:13;;;;;;;14.07;6.95;;;22.50;99.90;;;;;;5030747;28;20057;-70
2022/04/29 07:51:41;;;;;;;16.13;7.57;;;22.40;99.90;;;;;;5015631;28;20392;-70
2022/04/29 07:54:12;;;;;;;11.93;7.53;;;22.40;99.90;;;;;;5029935;28;20033;-70
2022/04/29 07:56:39;;;;;;;11.02;6.82;;;22.40;99.90;;;;;;5030166;28;20025;-70
2022/04/29 07:59:07;;;;;;;11.88;6.90;;;22.40;99.90;;;;;;5029182;28;20033;-70
2022/04/29 08:01:36;;;;;;;13.40;7.50;;;22.30;99.90;;;;;;5036276;28;20036;-70
2022/04/29 08:04:04;;;;;;;21.40;7.85;;;22.30;99.90;;;;;;5054269;28;20029;-70
2022/04/29 08:06:32;;;;;;;12.73;8.27;;;22.20;99.90;;;;;;5034747;28;20453;-70
2022/04/29 08:08:59;;;;;;;13.90;7.65;;;22.20;99.90;;;;;;5034377;28;20471;-70
2022/04/29 08:11:26;;;;;;;15.02;8.25;;;22.20;99.90;;;;;;5030010;28;20030;-71
2022/04/29 08:13:56;;;;;;;10.13;7.50;;;22.20;99.90;;;;;;5015556;28;20034;-70
2022/04/29 08:16:23;;;;;;;17.80;8.32;;;22.10;99.90;;;;;;5031611;28;20083;-70
2022/04/29 08:18:52;;;;;;;15.13;8.45;;;22.10;99.90;;;;;;5025825;28;20029;-70
2022/04/29 08:21:19;;;;;;;14.25;7.22;;;22.10;99.90;;;;;;5029046;28;20052;-70
2022/04/29 08:23:46;;;;;;;12.20;7.82;;;22.10;99.90;;;;;;5034460;28;20053;-70
2022/04/29 08:26:14;;;;;;;14.52;8.40;;;22.10;99.90;;;;;;5034877;28;20086;-70
2022/04/29 08:28:42;;;;;;;13.07;7.82;;;22.10;99.90;;;;;;5027410;28;20026;-69
2022/04/29 08:31:10;;;;;;;14.15;8.32;;;22.00;99.90;;;;;;5027434;28;20018;-70
2022/04/29 08:33:37;;;;;;;13.40;8.38;;;22.00;99.90;;;;;;5030464;28;20033;-68
2022/04/29 08:36:04;;;;;;;12.18;7.45;;;22.00;99.90;;;;;;5030196;28;20026;-69
2022/04/29 08:38:32;;;;;;;11.48;7.85;;;22.00;99.90;;;;;;5028337;28;20030;-70
2022/04/29 08:41:02;;;;;;;16.40;9.52;;;22.00;99.90;;;;;;5033131;28;20037;-70
2022/04/29 08:43:32;;;;;;;17.70;8.38;;;22.00;99.90;;;;;;5032654;28;20159;-70
2022/04/29 08:46:00;;;;;;;14.35;8.38;;;21.90;99.90;;;;;;5028879;28;20107;-70
2022/04/29 08:48:30;;;;;;;16.38;8.27;;;21.90;99.90;;;;;;5028645;28;20026;-70
2022/04/29 08:50:59;;;;;;;15.55;8.23;;;21.90;99.90;;;;;;5030283;28;20029;-70
2022/04/29 08:53:26;;;;;;;16.08;7.72;;;21.90;99.90;;;;;;5031078;28;20046;-70
2022/04/29 08:58:40;;;;;;;22.98;9.40;;;21.90;99.90;;;;;;5030777;28;20107;-70
2022/04/29 09:01:10;;;;;;;14.00;8.65;;;21.90;99.90;;;;;;5032850;28;20055;-70
2022/04/29 09:03:38;;;;;;;12.68;7.10;;;21.80;99.90;;;;;;5032223;28;20156;-70
2022/04/29 09:06:06;;;;;;;16.13;7.40;;;21.80;99.90;;;;;;5033027;28;20025;-70
2022/04/29 09:08:45;;;;;;;16.70;7.88;;;21.80;99.90;;;;;;5028077;28;20112;-70
2022/04/29 09:11:25;;;;;;;19.23;7.22;;;21.80;99.90;;;;;;5030924;28;20013;-70
2022/04/29 09:13:52;;;;;;;15.10;6.90;;;21.70;99.90;;;;;;5029320;28;20040;-70
2022/04/29 09:16:20;;;;;;;14.18;6.95;;;21.80;99.90;;;;;;5028600;28;20152;-70
2022/04/29 09:18:49;;;;;;;14.93;7.30;;;21.70;99.90;;;;;;5026167;28;20379;-70
2022/04/29 09:21:18;;;;;;;11.32;7.07;;;21.70;99.90;;;;;;5027004;28;20374;-70
2022/04/29 09:23:59;;;;;;;15.07;8.23;;;21.70;99.90;;;;;;5026854;28;20032;-70
2022/04/29 09:26:31;;;;;;;13.52;8.48;;;21.70;99.90;;;;;;5024382;28;20493;-70
2022/04/29 09:29:14;;;;;;;15.18;9.13;;;21.70;99.90;;;;;;5026939;28;20470;-70
2022/04/29 09:31:53;;;;;;;20.40;8.82;;;21.60;99.90;;;;;;5029973;28;20088;-70
2022/04/29 09:34:21;;;;;;;17.58;7.78;;;21.60;99.90;;;;;;5028782;28;20034;-70
2022/04/29 09:36:49;;;;;;;17.13;7.57;;;21.60;99.90;;;;;;5027372;28;20474;-69
2022/04/29 09:39:30;;;;;;;15.18;6.93;;;21.60;99.90;;;;;;5027022;28;20363;-69
2022/04/29 09:41:59;;;;;;;10.70;6.85;;;21.60;99.90;;;;;;5027875;28;20096;-69
2022/04/29 09:44:34;;;;;;;14.30;7.22;;;21.60;99.90;;;;;;5028461;28;20021;-69
2022/04/29 09:47:12;;;;;;;16.77;7.47;;;21.60;99.90;;;;;;5029181;28;20100;-69
2022/04/29 09:49:41;;;;;;;13.43;6.60;;;21.60;99.90;;;;;;5030386;28;20026;-69
2022/04/29 09:52:09;;;;;;;10.93;6.13;;;21.50;99.90;;;;;;5028086;28;20494;-69
2022/04/29 09:54:39;;;;;;;13.10;6.75;;;21.50;99.90;;;;;;5028448;28;20037;-69
2022/04/29 09:57:17;;;;;;;22.25;7.47;;;21.50;99.90;;;;;;5027950;28;20390;-70
2022/04/29 09:59:49;;;;;;;11.80;6.35;;;21.50;99.90;;;;;;5028987;28;20021;-69
2022/04/29 10:02:24;;;;;;;15.85;7.07;;;21.50;99.90;;;;;;5026731;28;20049;-69
2022/04/29 10:04:52;;;;;;;11.00;6.57;;;21.50;99.90;;;;;;5031317;28;20026;-69
2022/04/29 10:07:25;;;;;;;12.43;5.93;;;21.40;99.90;;;;;;5028706;28;20021;-69
2022/04/29 10:09:53;;;;;;;15.13;7.50;;;21.40;99.90;;;;;;5027927;28;20029;-69
2022/04/29 10:12:27;;;;;;;13.00;7.35;;;21.40;99.90;;;;;;5022043;28;20032;-69
2022/04/29 10:14:59;;;;;;;10.90;7.47;;;21.40;99.90;;;;;;5024349;28;20057;-69
2022/04/29 10:23:08;;;;;;;10.40;7.25;;;21.40;99.90;;;;;;5024496;28;20055;-69
2022/04/29 10:25:43;;;;;;;8.60;6.30;;;21.40;99.90;;;;;;5027847;28;20092;-69
2022/04/29 10:28:15;;;;;;;15.40;6.57;;;21.40;99.90;;;;;;5026833;28;20021;-69
2022/04/29 10:30:43;;;;;;;15.07;6.43;;;21.40;99.90;;;;;;5025058;28;20025;-69
2022/04/29 10:33:12;;;;;;;10.55;5.95;;;21.40;99.90;;;;;;5025077;28;20042;-69
2022/04/29 10:35:43;;;;;;;11.00;5.57;;;21.40;99.90;;;;;;5031991;28;20017;-69
2022/04/29 10:38:14;;;;;;;10.88;6.07;;;21.40;99.90;;;;;;5027417;28;20028;-69
2022/04/29 10:40:41;;;;;;;8.27;5.40;;;21.40;99.90;;;;;;5028402;28;20104;-69
2022/04/29 10:43:10;;;;;;;12.73;5.55;;;21.40;99.90;;;;;;5029952;28;20033;-69
2022/04/29 10:46:02;;;;;;;12.00;4.88;;;21.40;99.90;;;;;;5028656;28;20029;-69
2022/04/29 10:48:36;;;;;;;12.27;4.95;;;21.40;99.90;;;;;;5029686;28;20091;-69
2022/04/29 10:51:16;;;;;;;12.60;5.28;;;21.40;99.90;;;;;;5031247;28;20082;-69
2022/04/29 10:53:51;;;;;;;8.60;4.68;;;21.30;99.90;;;;;;5032526;28;20042;-69
2022/04/29 10:56:31;;;;;;;9.35;4.85;;;21.40;99.90;;;;;;5025820;28;20052;-69
2022/04/29 10:59:20;;;;;;;8.27;4.70;;;21.30;99.90;;;;;;5027964;28;20053;-69
2022/04/29 11:02:22;;;;;;;10.20;4.47;;;21.30;99.90;;;;;;5026252;28;20453;-69
2022/04/29 11:04:49;;;;;;;8.68;5.50;;;21.40;99.90;;;;;;5027972;28;20079;-69
2022/04/29 11:07:45;;;;;;;8.82;4.25;;;21.30;99.90;;;;;;5027814;28;20040;-69
2022/04/29 11:10:24;;;;;;;9.50;4.85;;;21.30;99.90;;;;;;5028738;28;20029;-69
2022/04/29 11:13:00;;;;;;;8.98;4.82;;;21.30;99.90;;;;;;5027702;28;20033;-69
2022/04/29 11:15:45;;;;;;;12.70;5.20;;;21.40;99.90;;;;;;5029881;28;20034;-69
2022/04/29 11:18:26;;;;;;;7.50;4.65;;;21.30;99.90;;;;;;5041155;28;20359;-69
2022/04/29 11:20:59;;;;;;;8.77;4.20;;;21.30;99.90;;;;;;5028165;28;20494;-69
2022/04/29 11:26:21;;;;;;;11.60;4.45;;;21.30;99.90;;;;;;5028422;28;20394;-69
2022/04/29 11:28:55;;;;;;;12.60;4.40;;;21.30;99.90;;;;;;5030045;28;20034;-69
2022/04/29 11:31:22;;;;;;;;;;;21.30;99.90;;;;;;5032897;28;20049;-69
2022/04/29 11:33:49;;;;;;;7.35;3.53;;;21.30;99.90;;;;;;5029288;28;19917;-69
2022/04/29 11:36:16;;;;;;;9.50;3.83;;;21.30;99.90;;;;;;5026798;28;20098;-69
2022/04/29 11:38:46;;;;;;;8.30;4.00;;;21.30;99.90;;;;;;5028058;28;20107;-69
2022/04/29 11:41:19;;;;;;;8.63;3.95;;;21.30;99.90;;;;;;5028141;28;20034;-70
2022/04/29 11:43:51;;;;;;;5.55;3.55;;;21.30;99.90;;;;;;5033363;28;20388;-70
2022/04/29 11:46:19;;;;;;;12.10;3.75;;;21.40;99.90;;;;;;5033797;28;20038;-70
2022/04/29 11:49:00;;;;;;;6.40;3.67;;;21.40;99.90;;;;;;5035484;28;20470;-70
2022/04/29 11:51:29;;;;;;;5.75;3.28;;;21.30;99.90;;;;;;5032086;28;20021;-71
2022/04/29 11:54:05;;;;;;;6.22;3.58;;;21.40;99.90;;;;;;5041902;28;20490;-70
2022/04/29 11:56:39;;;;;;;7.63;3.67;;;21.30;99.90;;;;;;5035315;28;20083;-70
2022/04/29 11:59:08;;;;;;;8.63;3.55;;;21.30;99.90;;;;;;5034794;28;20042;-70
2022/04/29 12:01:36;;;;;;;4.70;3.50;;;21.30;99.90;;;;;;5032582;28;20033;-69
2022/04/29 12:04:04;;;;;;;5.03;3.40;;;21.30;99.90;;;;;;5036357;28;20065;-69
2022/04/29 12:06:32;;;;;;;7.03;3.72;;;21.30;99.90;;;;;;5032067;28;20021;-69
2022/04/29 12:08:59;;;;;;;6.55;3.30;;;21.20;99.90;;;;;;5031745;28;20030;-69
2022/04/29 12:11:31;;;;;;;10.05;3.70;;;21.20;99.90;;;;;;5037591;28;20108;-69
2022/04/29 12:14:15;;;;;;;7.60;3.38;;;21.20;99.90;;;;;;5032629;28;20029;-69
2022/04/29 12:16:48;;;;;;;5.03;4.13;;;21.20;99.90;;;;;;5036396;28;20029;-69
2022/04/29 12:19:17;;;;;;;6.93;3.45;;;21.20;99.90;;;;;;5026141;28;20136;-69
2022/04/29 12:21:59;;;;;;;8.88;4.07;;;21.10;99.90;;;;;;5036025;28;20052;-69
2022/04/29 12:24:27;;;;;;;7.47;3.42;;;21.10;99.90;;;;;;5031954;28;20030;-69
2022/04/29 12:27:08;;;;;;;4.45;3.17;;;21.10;99.90;;;;;;5015015;28;20132;-69
2022/04/29 12:29:39;;;;;;;6.55;3.67;;;21.00;99.90;;;;;;5019611;28;20096;-69
2022/04/29 12:35:26;;;;;;;5.68;4.10;;;21.00;99.90;;;;;;5027980;28;20101;-69
2022/04/29 12:37:55;;;;;;;6.57;4.47;;;21.10;99.90;;;;;;5024458;28;20058;-69
2022/04/29 12:40:31;;;;;;;6.20;3.55;;;21.10;99.90;;;;;;5022680;28;20048;-69
2022/04/29 12:43:12;;;;;;;7.90;3.85;;;21.00;99.90;;;;;;5030732;28;20105;-69
2022/04/29 12:45:40;;;;;;;6.80;4.18;;;21.00;99.90;;;;;;5030937;28;20500;-69
2022/04/29 12:48:16;;;;;;;8.95;4.38;;;21.10;99.90;;;;;;5033247;28;20108;-69
2022/04/29 12:50:45;;;;;;;6.53;4.13;;;21.00;99.90;;;;;;5023510;28;20095;-69
2022/04/29 12:53:17;;;;;;;6.15;4.20;;;21.10;99.90;;;;;;5034652;28;20026;-69
2022/04/29 12:55:44;;;;;;;7.40;4.75;;;21.10;99.90;;;;;;5027900;28;20084;-69
2022/04/29 12:58:15;;;;;;;8.27;3.90;;;21.10;99.90;;;;;;5030831;28;20060;-69
2022/04/29 13:01:00;;;;;;;5.65;3.60;;;21.00;99.90;;;;;;5021944;28;20116;-69
2022/04/29 13:03:29;;;;;;;9.02;4.07;;;21.10;99.90;;;;;;5024662;28;20461;-69
2022/04/29 13:05:59;;;;;;;5.25;3.50;;;21.00;99.90;;;;;;5046575;28;20116;-69
2022/04/29 13:08:27;;;;;;;9.63;3.95;;;21.00;99.90;;;;;;5039455;28;20017;-69
2022/04/29 13:10:56;;;;;;;8.73;4.25;;;21.00;99.90;;;;;;5039751;28;20033;-69
2022/04/29 13:13:25;;;;;;;8.45;4.05;;;21.00;99.90;;;;;;5033493;28;20100;-69
2022/04/29 13:15:54;;;;;;;8.13;3.92;;;21.00;99.90;;;;;;5033374;28;20025;-69
2022/04/29 13:18:25;;;;;;;6.97;4.13;;;21.00;99.90;;;;;;5041371;28;20021;-69
2022/04/29 13:20:53;;;;;;;5.35;3.58;;;21.00;99.90;;;;;;5036134;28;20032;-69
2022/04/29 13:23:20;;;;;;;6.18;3.53;;;21.00;99.90;;;;;;5035801;28;20051;-69